KEAT/EAT METAR and TAF weather

Enter ICAO airport designator
Station Type Date Time Source
KEAT METAR 2019/02/23 16:55 UTC NOAA

KEAT 231655Z AUTO 18003KT 1 1/4SM BR OVC002 M06/M07 A3014 RMK AO2 SLP227 I1001 T10611067


Station Type Date Time Source
KEAT Decoded METAR 2019/02/23 16:55 UTC NOAA

WENATCHEE PANGBORN MEMO, WA, United States (KEAT) 47-24N 120-12W 377M
Feb 23, 2019 - 11:55 AM EST / 2019.02.23 1655 UTC
Wind: from the S (180 degrees) at 3 MPH (3 KT):0
Visibility: 1 1/4 mile(s):0
Sky conditions: overcast
Weather: mist
Temperature: 21.0 F (-6.1 C)
Dew Point: 19.9 F (-6.7 C)
Relative Humidity: 95%
Pressure (altimeter): 30.14 in. Hg (1020 hPa)
ob: KEAT 231655Z AUTO 18003KT 1 1/4SM BR OVC002 M06/M07 A3014 RMK AO2 SLP227 I1001 T10611067
cycle: 17

Station Type Date Time Source
KEAT TAF 2019/02/23 13:42 UTC NOAA

TAF
AMD KEAT 231241Z 2313/2412 05003KT 1SM BR OVC002
FM231700 32003KT 5SM BR OVC015
FM240000 13003KT P6SM OVC010
FM240600 31003KT 4SM BR OVC015 PROB30 2406/2410 2SM -SN OVC010
FM241000 29003KT 2SM -SN BR OVC015


Example: see airport list